Time;durP1;ratioP1;P1;durP2;ratioP2;P2;SDS_P1;SDS_P2;PMS_P1;PMS_P2;Temp;Humidity;BMP_temperature;BMP_pressure;BME280_temperature;BME280_humidity;BME280_pressure;Samples;Min_cycle;Max_cycle;Signal;HPM_P1;HPM_P2
2022/12/19 00:00:38;;;;;;;0.30;0.30;;;;;;;;;;5056793;28;20081;-91
2022/12/19 00:03:06;;;;;;;1.25;1.15;;;;;;;;;;5063646;28;20080;-92
2022/12/19 00:05:37;;;;;;;0.43;0.43;;;;;;;;;;5063728;28;20148;-92
2022/12/19 00:08:07;;;;;;;0.75;0.75;;;;;;;;;;5067165;28;20136;-93
2022/12/19 00:10:54;;;;;;;8.52;0.82;;;;;;;;;;5034651;28;20045;-92
2022/12/19 00:13:23;;;;;;;2.28;2.08;;;;;;;;;;5073579;28;20163;-92
2022/12/19 00:15:51;;;;;;;5.05;0.65;;;;;;;;;;5061519;28;20107;-92
2022/12/19 00:18:20;;;;;;;0.77;0.77;;;;;;;;;;5072664;28;20052;-92
2022/12/19 00:20:55;;;;;;;0.50;0.50;;;;;;;;;;5065413;28;20131;-90
2022/12/19 00:23:23;;;;;;;0.63;0.63;;;;;;;;;;5068302;28;20053;-92
2022/12/19 00:25:53;;;;;;;0.43;0.43;;;;;;;;;;5057840;28;20171;-92
2022/12/19 00:28:23;;;;;;;0.70;0.70;;;;;;;;;;5066083;28;20048;-91
2022/12/19 00:30:51;;;;;;;2.13;1.15;;;;;;;;;;5066293;28;20045;-92
2022/12/19 00:33:22;;;;;;;0.40;0.40;;;;;;;;;;5067032;28;20059;-91
2022/12/19 00:35:51;;;;;;;0.20;0.20;;;;;;;;;;5067629;28;20048;-92
2022/12/19 00:38:19;;;;;;;1.75;0.95;;;;;;;;;;5064003;28;20059;-92
2022/12/19 00:40:48;;;;;;;0.50;0.50;;;;;;;;;;5075986;28;20044;-92
2022/12/19 00:43:17;;;;;;;0.63;0.63;;;;;;;;;;5071524;28;20057;-91
2022/12/19 00:45:46;;;;;;;0.38;0.32;;;;;;;;;;5066726;28;20075;-92
2022/12/19 00:48:17;;;;;;;0.75;0.75;;;;;;;;;;5071105;28;20044;-91
2022/12/19 00:50:46;;;;;;;1.63;0.90;;;;;;;;;;5065899;28;20055;-92
2022/12/19 00:53:14;;;;;;;0.65;0.65;;;;;;;;;;5067391;28;20095;-92
2022/12/19 00:55:43;;;;;;;0.55;0.47;;;;;;;;;;5074019;28;20034;-91
2022/12/19 00:58:11;;;;;;;1.27;1.05;;;;;;;;;;5071258;28;20095;-92
2022/12/19 01:00:41;;;;;;;0.32;0.32;;;;;;;;;;5065255;28;20523;-92
2022/12/19 01:03:10;;;;;;;0.50;0.50;;;;;;;;;;5073518;28;20139;-92
2022/12/19 01:05:39;;;;;;;3.42;1.42;;;;;;;;;;5071325;28;20127;-91
2022/12/19 01:08:09;;;;;;;0.52;0.52;;;;;;;;;;5069585;28;20044;-91
2022/12/19 01:10:38;;;;;;;0.45;0.45;;;;;;;;;;5072326;28;20213;-92
2022/12/19 01:13:05;;;;;;;0.52;0.52;;;;;;;;;;5071817;28;20065;-92
2022/12/19 01:15:34;;;;;;;1.00;0.65;;;;;;;;;;5071290;28;20048;-92
2022/12/19 01:18:04;;;;;;;0.50;0.50;;;;;;;;;;5069324;28;20118;-91
2022/12/19 01:20:32;;;;;;;1.13;1.08;;;;;;;;;;5073157;28;20045;-91
2022/12/19 01:23:01;;;;;;;0.30;0.30;;;;;;;;;;5072101;28;20134;-92
2022/12/19 01:25:29;;;;;;;0.60;0.60;;;;;;;;;;5069267;28;20097;-92
2022/12/19 01:27:58;;;;;;;0.85;0.85;;;;;;;;;;5067569;28;20083;-91
2022/12/19 01:30:27;;;;;;;0.55;0.55;;;;;;;;;;5064901;28;20052;-91
2022/12/19 01:32:58;;;;;;;1.77;1.15;;;;;;;;;;5073615;28;20063;-92
2022/12/19 01:35:28;;;;;;;0.60;0.50;;;;;;;;;;5071501;28;20049;-92
2022/12/19 01:37:58;;;;;;;1.40;1.30;;;;;;;;;;5069281;28;20181;-92
2022/12/19 01:40:36;;;;;;;0.30;0.30;;;;;;;;;;5072793;28;20068;-92
2022/12/19 01:43:06;;;;;;;0.50;0.50;;;;;;;;;;5072103;28;20040;-92
2022/12/19 01:45:35;;;;;;;2.15;1.55;;;;;;;;;;5061091;28;20045;-93
2022/12/19 01:48:15;;;;;;;1.27;1.05;;;;;;;;;;5070376;28;20403;-92
2022/12/19 01:50:49;;;;;;;0.82;0.82;;;;;;;;;;5060814;28;20036;-93
2022/12/19 01:53:32;;;;;;;0.43;0.43;;;;;;;;;;5067854;28;20053;-92
2022/12/19 01:56:01;;;;;;;2.47;1.42;;;;;;;;;;5070627;28;20056;-93
2022/12/19 01:58:36;;;;;;;3.55;0.77;;;;;;;;;;5072010;28;20080;-92
2022/12/19 02:01:05;;;;;;;6.60;0.93;;;;;;;;;;5077594;28;20132;-93
2022/12/19 02:03:35;;;;;;;0.55;0.55;;;;;;;;;;5067833;28;20052;-93
2022/12/19 02:06:06;;;;;;;0.98;0.98;;;;;;;;;;5072103;28;20051;-93
2022/12/19 02:08:35;;;;;;;1.30;1.20;;;;;;;;;;5067266;28;20060;-93
2022/12/19 02:11:04;;;;;;;1.42;1.33;;;;;;;;;;5057286;28;20131;-93
2022/12/19 02:13:32;;;;;;;0.43;0.43;;;;;;;;;;5063236;28;20053;-93
2022/12/19 02:16:03;;;;;;;2.90;2.17;;;;;;;;;;5068827;28;20044;-93
2022/12/19 02:18:35;;;;;;;1.60;1.15;;;;;;;;;;5073779;28;20044;-92
2022/12/19 02:21:19;;;;;;;3.85;0.60;;;;;;;;;;5082104;28;20048;-92
2022/12/19 02:24:08;;;;;;;0.20;0.20;;;;;;;;;;5062044;28;20095;-91
2022/12/19 02:26:49;;;;;;;0.40;0.40;;;;;;;;;;5060137;28;20071;-92
2022/12/19 02:29:33;;;;;;;1.58;1.00;;;;;;;;;;5065133;28;20045;-92
2022/12/19 02:32:05;;;;;;;1.03;0.93;;;;;;;;;;5066358;28;20461;-92
2022/12/19 02:34:38;;;;;;;0.80;0.70;;;;;;;;;;5066525;28;20517;-92
2022/12/19 02:37:13;;;;;;;0.40;0.40;;;;;;;;;;5063961;28;20052;-91
2022/12/19 02:39:47;;;;;;;0.50;0.50;;;;;;;;;;5072857;28;20098;-91
2022/12/19 02:42:20;;;;;;;0.47;0.47;;;;;;;;;;5076281;28;20053;-91
2022/12/19 02:44:51;;;;;;;1.60;0.70;;;;;;;;;;5067668;28;20044;-91
2022/12/19 02:47:22;;;;;;;1.92;0.95;;;;;;;;;;5072322;28;20100;-92
2022/12/19 02:49:51;;;;;;;1.30;0.93;;;;;;;;;;5080897;28;20053;-92
2022/12/19 02:52:38;;;;;;;5.07;0.63;;;;;;;;;;5078758;28;20807;-91
2022/12/19 02:55:08;;;;;;;1.65;1.55;;;;;;;;;;5080276;28;20063;-91
2022/12/19 02:57:40;;;;;;;1.60;1.50;;;;;;;;;;5081118;28;20082;-91
2022/12/19 03:00:09;;;;;;;6.75;1.15;;;;;;;;;;5074960;28;20059;-91
2022/12/19 03:02:44;;;;;;;3.63;2.15;;;;;;;;;;5080083;28;20048;-91
2022/12/19 03:05:27;;;;;;;0.88;0.88;;;;;;;;;;5078849;28;20047;-93
2022/12/19 03:07:57;;;;;;;0.40;0.40;;;;;;;;;;5067184;28;20044;-92
2022/12/19 03:10:30;;;;;;;1.58;1.48;;;;;;;;;;5069100;28;20076;-92
2022/12/19 03:13:02;;;;;;;5.03;0.52;;;;;;;;;;5074550;28;20045;-92
2022/12/19 03:15:32;;;;;;;0.65;0.60;;;;;;;;;;5071068;28;20424;-91
2022/12/19 03:18:03;;;;;;;0.55;0.55;;;;;;;;;;5075626;28;20045;-92
2022/12/19 03:20:37;;;;;;;0.65;0.65;;;;;;;;;;5070233;28;20151;-92
2022/12/19 03:23:06;;;;;;;0.60;0.60;;;;;;;;;;5073471;28;20392;-92
2022/12/19 03:25:35;;;;;;;0.38;0.38;;;;;;;;;;5072352;28;20096;-92
2022/12/19 03:28:05;;;;;;;10.05;1.00;;;;;;;;;;5071807;28;20127;-92
2022/12/19 03:30:35;;;;;;;2.08;0.88;;;;;;;;;;5079747;28;20040;-92
2022/12/19 03:33:05;;;;;;;4.47;0.63;;;;;;;;;;5071337;28;20048;-92
2022/12/19 03:35:36;;;;;;;1.02;0.63;;;;;;;;;;5071325;28;20064;-91
2022/12/19 03:38:06;;;;;;;0.70;0.70;;;;;;;;;;5069533;28;20104;-92
2022/12/19 03:40:39;;;;;;;1.70;1.60;;;;;;;;;;5075286;28;20056;-91
2022/12/19 03:43:10;;;;;;;0.60;0.60;;;;;;;;;;5070675;28;20036;-92
2022/12/19 03:45:44;;;;;;;0.30;0.30;;;;;;;;;;5068815;28;20048;-92
2022/12/19 03:48:16;;;;;;;2.05;0.70;;;;;;;;;;5071602;28;20057;-91
2022/12/19 03:50:49;;;;;;;0.30;0.30;;;;;;;;;;5056322;28;20045;-92
2022/12/19 03:53:24;;;;;;;0.88;0.88;;;;;;;;;;5073603;28;20095;-92
2022/12/19 03:55:55;;;;;;;2.35;1.52;;;;;;;;;;5069162;28;20049;-93
2022/12/19 03:58:28;;;;;;;4.15;1.00;;;;;;;;;;5072103;28;20080;-92
2022/12/19 04:00:57;;;;;;;3.83;1.60;;;;;;;;;;5065282;28;20040;-91
2022/12/19 04:03:28;;;;;;;1.58;1.42;;;;;;;;;;5072915;28;20102;-92
2022/12/19 04:05:57;;;;;;;0.60;0.60;;;;;;;;;;5072844;28;20052;-91
2022/12/19 04:08:26;;;;;;;0.88;0.82;;;;;;;;;;5067621;28;20052;-91
2022/12/19 04:10:56;;;;;;;1.95;1.77;;;;;;;;;;5063684;28;20076;-92
2022/12/19 04:13:28;;;;;;;7.07;1.30;;;;;;;;;;5062199;28;20056;-92
2022/12/19 04:15:59;;;;;;;0.82;0.60;;;;;;;;;;5069005;28;20032;-90
2022/12/19 04:18:29;;;;;;;0.30;0.30;;;;;;;;;;5057688;28;20079;-91
2022/12/19 04:20:59;;;;;;;0.95;0.95;;;;;;;;;;5067799;28;20048;-91
2022/12/19 04:23:32;;;;;;;5.90;0.68;;;;;;;;;;5066623;28;20106;-90
2022/12/19 04:26:02;;;;;;;1.25;0.50;;;;;;;;;;5068034;28;20044;-91
2022/12/19 04:28:33;;;;;;;0.60;0.60;;;;;;;;;;5066839;28;20062;-92
2022/12/19 04:31:02;;;;;;;5.60;0.60;;;;;;;;;;5070304;28;20059;-92
2022/12/19 04:33:32;;;;;;;2.70;1.83;;;;;;;;;;5065894;28;20583;-92
2022/12/19 04:36:01;;;;;;;0.77;0.63;;;;;;;;;;5066217;28;20082;-92
2022/12/19 04:38:30;;;;;;;1.75;0.60;;;;;;;;;;5063892;28;20044;-91
2022/12/19 04:40:58;;;;;;;0.68;0.68;;;;;;;;;;5071529;28;20044;-92
2022/12/19 04:43:27;;;;;;;0.73;0.73;;;;;;;;;;5071494;28;20052;-92
2022/12/19 04:45:55;;;;;;;1.15;1.05;;;;;;;;;;5063480;28;20041;-92
2022/12/19 04:48:25;;;;;;;0.32;0.32;;;;;;;;;;5070997;28;20076;-92
2022/12/19 04:50:55;;;;;;;2.50;1.75;;;;;;;;;;5069252;28;20079;-92
2022/12/19 04:53:24;;;;;;;1.65;1.25;;;;;;;;;;5069194;28;20056;-92
2022/12/19 04:56:00;;;;;;;0.57;0.52;;;;;;;;;;5068809;28;20438;-93
2022/12/19 04:58:28;;;;;;;0.45;0.45;;;;;;;;;;5067636;28;20044;-92
2022/12/19 05:01:01;;;;;;;0.43;0.43;;;;;;;;;;5065365;28;20048;-92
2022/12/19 05:03:29;;;;;;;7.43;1.48;;;;;;;;;;5071160;28;20264;-92
2022/12/19 05:06:05;;;;;;;3.75;0.65;;;;;;;;;;5067410;28;20120;-92
2022/12/19 05:08:34;;;;;;;1.95;0.50;;;;;;;;;;5059475;28;20148;-92
2022/12/19 05:11:04;;;;;;;1.75;0.60;;;;;;;;;;5062667;28;20069;-92
2022/12/19 05:13:33;;;;;;;0.77;0.77;;;;;;;;;;5070634;28;20067;-92
2022/12/19 05:16:03;;;;;;;0.82;0.82;;;;;;;;;;5070260;28;20048;-91
2022/12/19 05:18:32;;;;;;;1.30;0.98;;;;;;;;;;5063653;28;20168;-93
2022/12/19 05:21:00;;;;;;;7.90;0.52;;;;;;;;;;5058413;28;20064;-92
2022/12/19 05:23:30;;;;;;;2.55;0.82;;;;;;;;;;5070261;28;20045;-92
2022/12/19 05:25:59;;;;;;;0.70;0.70;;;;;;;;;;5070468;28;20082;-92
2022/12/19 05:28:28;;;;;;;0.63;0.52;;;;;;;;;;5066776;28;20059;-91
2022/12/19 05:31:02;;;;;;;0.63;0.63;;;;;;;;;;5068859;28;20048;-92
2022/12/19 05:33:31;;;;;;;0.38;0.38;;;;;;;;;;5063285;28;20040;-92
2022/12/19 05:36:00;;;;;;;0.30;0.30;;;;;;;;;;5062176;28;20412;-91
2022/12/19 05:38:29;;;;;;;0.65;0.40;;;;;;;;;;5064554;28;20493;-91
2022/12/19 05:40:59;;;;;;;0.50;0.50;;;;;;;;;;5061432;28;20123;-91
2022/12/19 05:43:27;;;;;;;0.30;0.30;;;;;;;;;;5065696;28;20147;-92
2022/12/19 05:45:56;;;;;;;0.20;0.20;;;;;;;;;;5059317;28;20545;-92
2022/12/19 05:51:28;;;;;;;0.93;0.93;;;;;;;;;;5059454;28;20072;-92
2022/12/19 05:53:57;;;;;;;0.35;0.30;;;;;;;;;;5062854;28;20154;-92
2022/12/19 05:56:27;;;;;;;1.27;1.23;;;;;;;;;;5070518;28;20489;-92
2022/12/19 05:58:56;;;;;;;0.47;0.47;;;;;;;;;;5066175;28;20044;-92
2022/12/19 06:01:26;;;;;;;1.40;1.10;;;;;;;;;;5067061;28;20838;-89
2022/12/19 06:03:55;;;;;;;0.30;0.30;;;;;;;;;;5065931;28;20103;-89
2022/12/19 06:06:24;;;;;;;0.70;0.70;;;;;;;;;;5066602;28;20086;-91
2022/12/19 06:08:54;;;;;;;1.25;0.57;;;;;;;;;;5065742;28;20044;-92
2022/12/19 06:11:22;;;;;;;2.38;0.85;;;;;;;;;;5059064;28;20051;-91
2022/12/19 06:13:53;;;;;;;1.05;0.98;;;;;;;;;;5047703;28;20048;-91
2022/12/19 06:16:22;;;;;;;1.58;0.70;;;;;;;;;;5066666;28;20064;-90
2022/12/19 06:18:51;;;;;;;0.40;0.40;;;;;;;;;;5058343;28;20353;-91
2022/12/19 06:21:20;;;;;;;3.17;1.48;;;;;;;;;;5066990;28;20469;-91
2022/12/19 06:23:49;;;;;;;0.52;0.52;;;;;;;;;;5071935;28;20364;-93
2022/12/19 06:26:19;;;;;;;2.38;0.82;;;;;;;;;;5074019;28;20428;-92
2022/12/19 06:28:48;;;;;;;1.08;0.75;;;;;;;;;;5066654;28;20372;-92
2022/12/19 06:31:20;;;;;;;0.38;0.38;;;;;;;;;;5061022;28;20437;-91
2022/12/19 06:33:49;;;;;;;0.40;0.40;;;;;;;;;;5064618;28;20056;-92
2022/12/19 06:36:20;;;;;;;0.20;0.20;;;;;;;;;;5067042;28;20120;-92
2022/12/19 06:38:49;;;;;;;0.50;0.50;;;;;;;;;;5058762;28;20064;-91
2022/12/19 06:44:06;;;;;;;0.45;0.45;;;;;;;;;;5068837;28;20137;-92
2022/12/19 06:46:37;;;;;;;0.60;0.60;;;;;;;;;;5072039;28;20044;-92
2022/12/19 06:49:06;;;;;;;1.75;1.45;;;;;;;;;;5068700;28;20083;-92
2022/12/19 06:51:35;;;;;;;0.43;0.43;;;;;;;;;;5065497;28;20037;-91
2022/12/19 06:54:04;;;;;;;0.35;0.35;;;;;;;;;;5065652;28;20052;-91
2022/12/19 06:56:34;;;;;;;0.45;0.45;;;;;;;;;;5064714;28;20053;-91
2022/12/19 06:59:03;;;;;;;0.52;0.40;;;;;;;;;;5071784;28;20587;-92
2022/12/19 07:01:39;;;;;;;0.40;0.40;;;;;;;;;;5072196;28;20102;-91
2022/12/19 07:04:11;;;;;;;6.15;1.42;;;;;;;;;;5076044;28;20063;-92
2022/12/19 07:06:40;;;;;;;0.20;0.20;;;;;;;;;;5073562;28;20573;-92
2022/12/19 07:09:16;;;;;;;0.70;0.63;;;;;;;;;;5060312;28;20040;-92
2022/12/19 07:11:45;;;;;;;0.93;0.93;;;;;;;;;;5071878;28;20060;-93
2022/12/19 07:14:13;;;;;;;0.20;0.20;;;;;;;;;;5066525;28;20111;-93
2022/12/19 07:16:42;;;;;;;0.32;0.32;;;;;;;;;;5072144;28;20049;-93
2022/12/19 07:19:12;;;;;;;1.30;1.20;;;;;;;;;;5063692;28;20086;-92
2022/12/19 07:21:41;;;;;;;0.50;0.50;;;;;;;;;;5070072;28;20310;-92
2022/12/19 07:24:11;;;;;;;1.40;0.93;;;;;;;;;;5065177;28;20053;-92
2022/12/19 07:26:40;;;;;;;0.85;0.85;;;;;;;;;;5069233;28;20075;-92
2022/12/19 07:29:09;;;;;;;0.93;0.93;;;;;;;;;;5072976;28;20106;-93
2022/12/19 07:31:39;;;;;;;2.28;2.15;;;;;;;;;;5068917;28;20036;-92
2022/12/19 07:34:08;;;;;;;0.60;0.43;;;;;;;;;;5073303;28;20407;-93
2022/12/19 07:36:39;;;;;;;1.67;1.38;;;;;;;;;;5066274;28;20503;-92
2022/12/19 07:39:07;;;;;;;4.57;0.68;;;;;;;;;;5073656;28;20049;-94
2022/12/19 07:41:37;;;;;;;0.57;0.57;;;;;;;;;;5078470;28;20047;-93
2022/12/19 07:44:06;;;;;;;0.68;0.57;;;;;;;;;;5075323;28;20040;-92
2022/12/19 07:46:35;;;;;;;0.65;0.65;;;;;;;;;;5076103;28;20044;-93
2022/12/19 07:49:04;;;;;;;0.40;0.40;;;;;;;;;;5060268;28;20040;-93
2022/12/19 07:51:33;;;;;;;0.75;0.55;;;;;;;;;;5070062;28;20056;-92
2022/12/19 07:54:06;;;;;;;0.30;0.30;;;;;;;;;;5070543;28;20044;-93
2022/12/19 07:56:35;;;;;;;1.20;1.13;;;;;;;;;;5068458;28;20041;-90
2022/12/19 07:59:03;;;;;;;0.30;0.30;;;;;;;;;;5078034;28;20479;-92
2022/12/19 08:01:32;;;;;;;0.30;0.30;;;;;;;;;;5071982;28;20056;-92
2022/12/19 08:04:01;;;;;;;0.95;0.95;;;;;;;;;;5062881;28;20065;-92
2022/12/19 08:06:30;;;;;;;0.93;0.93;;;;;;;;;;5068661;28;20468;-91
2022/12/19 08:09:08;;;;;;;0.50;0.50;;;;;;;;;;5064553;28;20510;-91
2022/12/19 08:11:37;;;;;;;5.57;0.60;;;;;;;;;;5067900;28;20485;-91
2022/12/19 08:14:06;;;;;;;0.55;0.43;;;;;;;;;;5065827;28;20104;-91
2022/12/19 08:16:36;;;;;;;0.40;0.40;;;;;;;;;;5063190;28;20114;-92
2022/12/19 08:19:25;;;;;;;0.30;0.30;;;;;;;;;;5068534;28;20052;-92
2022/12/19 08:21:55;;;;;;;0.57;0.57;;;;;;;;;;5071472;28;20047;-92
2022/12/19 08:24:25;;;;;;;0.40;0.40;;;;;;;;;;5067582;28;20055;-93
2022/12/19 08:26:54;;;;;;;0.77;0.77;;;;;;;;;;5073604;28;20060;-93
2022/12/19 08:29:23;;;;;;;0.75;0.75;;;;;;;;;;5077817;28;20055;-93
2022/12/19 08:31:52;;;;;;;0.30;0.30;;;;;;;;;;5069122;28;20404;-91
2022/12/19 08:34:21;;;;;;;2.75;0.68;;;;;;;;;;5077055;28;20359;-92
2022/12/19 08:36:50;;;;;;;0.50;0.47;;;;;;;;;;5074957;28;20074;-93
2022/12/19 08:39:19;;;;;;;0.73;0.73;;;;;;;;;;5077596;28;20051;-93
2022/12/19 08:41:49;;;;;;;0.38;0.35;;;;;;;;;;5077835;28;20355;-93
2022/12/19 08:44:18;;;;;;;0.30;0.30;;;;;;;;;;5076977;28;20108;-92
2022/12/19 08:46:47;;;;;;;0.60;0.60;;;;;;;;;;5070760;28;20104;-92
2022/12/19 08:49:18;;;;;;;0.52;0.52;;;;;;;;;;5074423;28;20508;-92
2022/12/19 08:51:48;;;;;;;0.65;0.65;;;;;;;;;;5078613;28;20071;-92
2022/12/19 08:54:17;;;;;;;0.40;0.40;;;;;;;;;;5075092;28;20049;-90
2022/12/19 08:56:46;;;;;;;0.32;0.32;;;;;;;;;;5075120;28;20064;-90
2022/12/19 08:59:18;;;;;;;0.75;0.40;;;;;;;;;;5074169;28;20045;-91
2022/12/19 09:01:59;;;;;;;0.43;0.43;;;;;;;;;;5074123;28;20051;-91
2022/12/19 09:04:29;;;;;;;0.40;0.40;;;;;;;;;;5075025;28;20091;-92
2022/12/19 09:07:19;;;;;;;0.65;0.65;;;;;;;;;;5070739;28;20060;-90
2022/12/19 09:09:49;;;;;;;1.05;0.82;;;;;;;;;;5069132;28;20059;-91
2022/12/19 09:12:18;;;;;;;0.77;0.65;;;;;;;;;;5078529;28;20059;-92
2022/12/19 09:14:48;;;;;;;0.40;0.40;;;;;;;;;;5074493;28;20090;-90
2022/12/19 09:17:17;;;;;;;2.80;1.25;;;;;;;;;;5076250;28;20163;-91
2022/12/19 09:19:46;;;;;;;0.65;0.50;;;;;;;;;;5068915;28;20069;-91
2022/12/19 09:22:16;;;;;;;2.55;0.95;;;;;;;;;;5075216;28;20052;-92
2022/12/19 09:24:45;;;;;;;0.25;0.25;;;;;;;;;;5075063;28;20048;-93
2022/12/19 09:27:14;;;;;;;0.60;0.60;;;;;;;;;;5074263;28;20105;-93
2022/12/19 09:29:43;;;;;;;3.60;1.40;;;;;;;;;;5077250;28;20075;-91
2022/12/19 09:32:14;;;;;;;0.10;0.10;;;;;;;;;;5073930;28;20119;-91
2022/12/19 09:34:43;;;;;;;0.30;0.30;;;;;;;;;;5063710;28;20059;-91
2022/12/19 09:37:12;;;;;;;0.35;0.35;;;;;;;;;;5068328;28;20048;-92
2022/12/19 09:39:45;;;;;;;4.40;1.13;;;;;;;;;;5162296;22;20061;-91
2022/12/19 09:42:29;;;;;;;5.45;1.08;;;;;;;;;;5072014;28;20039;-91
2022/12/19 09:45:04;;;;;;;0.68;0.68;;;;;;;;;;5071415;28;20484;-92
2022/12/19 09:47:39;;;;;;;1.17;1.10;;;;;;;;;;5067641;28;20075;-91
2022/12/19 09:50:21;;;;;;;0.65;0.65;;;;;;;;;;5087754;28;20048;-91
2022/12/19 09:52:56;;;;;;;0.30;0.30;;;;;;;;;;5082728;28;20106;-91
2022/12/19 09:55:24;;;;;;;;;;;;;;;;;;5071312;28;20103;-90
2022/12/19 09:57:56;;;;;;;1.58;1.48;;;;;;;;;;5066364;28;19920;-89
2022/12/19 10:00:34;;;;;;;2.15;0.95;;;;;;;;;;5079976;28;20097;-90
2022/12/19 10:03:13;;;;;;;5.80;1.42;;;;;;;;;;5068893;28;20048;-89
2022/12/19 10:05:43;;;;;;;1.45;0.93;;;;;;;;;;5074058;28;20046;-90
2022/12/19 10:08:34;;;;;;;0.63;0.63;;;;;;;;;;5077308;28;20047;-89
2022/12/19 10:11:32;;;;;;;1.05;0.82;;;;;;;;;;5079843;28;20057;-90
2022/12/19 10:14:32;;;;;;;0.30;0.30;;;;;;;;;;5068019;28;20036;-94
2022/12/19 10:17:04;;;;;;;0.80;0.80;;;;;;;;;;5082418;28;20044;-91
2022/12/19 10:20:02;;;;;;;0.65;0.65;;;;;;;;;;5074595;28;20468;-94
2022/12/19 10:22:36;;;;;;;0.45;0.45;;;;;;;;;;5080661;28;20048;-92
2022/12/19 10:25:14;;;;;;;1.10;1.00;;;;;;;;;;5071561;28;20159;-92
2022/12/19 10:27:47;;;;;;;4.47;0.77;;;;;;;;;;5078787;28;20049;-91
2022/12/19 10:30:29;;;;;;;0.38;0.38;;;;;;;;;;5072169;28;20153;-92
2022/12/19 10:33:03;;;;;;;0.95;0.95;;;;;;;;;;5076790;28;20052;-92
2022/12/19 10:35:37;;;;;;;0.40;0.40;;;;;;;;;;5069565;28;20040;-92
2022/12/19 10:38:14;;;;;;;0.47;0.40;;;;;;;;;;5085719;28;20049;-91
2022/12/19 10:40:46;;;;;;;0.30;0.30;;;;;;;;;;5064122;28;20045;-93
2022/12/19 10:43:19;;;;;;;0.28;0.28;;;;;;;;;;5084763;28;20041;-93
2022/12/19 10:46:05;;;;;;;0.20;0.20;;;;;;;;;;5104554;28;20137;-91
2022/12/19 10:49:00;;;;;;;2.00;1.90;;;;;;;;;;5103653;28;20055;-91
2022/12/19 10:51:30;;;;;;;;;;;;;;;;;;5105022;28;20070;-91
2022/12/19 10:54:26;;;;;;;6.97;0.95;;;;;;;;;;5103674;28;19992;-91
2022/12/19 11:03:43;;;;;;;0.20;0.20;;;;;;;;;;5083362;28;20126;-91
2022/12/19 11:06:32;;;;;;;0.77;0.63;;;;;;;;;;5082007;28;20044;-90
2022/12/19 11:09:16;;;;;;;0.52;0.52;;;;;;;;;;5074754;28;20045;-94
2022/12/19 11:11:47;;;;;;;0.82;0.82;;;;;;;;;;5071589;28;20412;-92
2022/12/19 11:14:36;;;;;;;0.85;0.60;;;;;;;;;;5066739;28;20369;-93
2022/12/19 11:17:26;;;;;;;0.65;0.52;;;;;;;;;;5070235;28;20041;-94
2022/12/19 11:20:22;;;;;;;0.43;0.43;;;;;;;;;;5063114;28;20094;-93
2022/12/19 11:23:04;;;;;;;1.70;1.60;;;;;;;;;;5068761;28;20148;-94
2022/12/19 11:25:54;;;;;;;0.77;0.68;;;;;;;;;;5072450;28;20049;-92
2022/12/19 11:28:43;;;;;;;0.40;0.40;;;;;;;;;;5064601;28;20063;-93
2022/12/19 11:31:31;;;;;;;0.93;0.93;;;;;;;;;;5069360;28;20056;-93
2022/12/19 11:34:23;;;;;;;0.77;0.75;;;;;;;;;;5071776;28;20041;-94
2022/12/19 11:37:33;;;;;;;0.60;0.60;;;;;;;;;;5074813;28;20047;-93
2022/12/19 11:40:43;;;;;;;0.40;0.40;;;;;;;;;;4986080;28;20064;-93
2022/12/19 11:43:53;;;;;;;0.93;0.93;;;;;;;;;;5010246;28;20189;-91
2022/12/19 11:46:57;;;;;;;0.40;0.40;;;;;;;;;;5006698;28;20426;-90
2022/12/19 11:49:42;;;;;;;3.03;0.40;;;;;;;;;;4988788;28;20042;-90
2022/12/19 11:52:15;;;;;;;0.50;0.50;;;;;;;;;;5012624;28;20121;-90
2022/12/19 11:55:07;;;;;;;0.75;0.75;;;;;;;;;;5008182;28;20108;-89
2022/12/19 11:57:38;;;;;;;0.52;0.52;;;;;;;;;;5018932;28;20511;-89
2022/12/19 12:00:12;;;;;;;0.70;0.68;;;;;;;;;;5009553;28;20546;-87
2022/12/19 12:02:53;;;;;;;0.40;0.30;;;;;;;;;;5013790;28;20034;-90
2022/12/19 12:05:42;;;;;;;1.40;1.30;;;;;;;;;;5011013;28;20046;-91
2022/12/19 12:08:24;;;;;;;1.17;0.40;;;;;;;;;;5012300;28;20045;-89
2022/12/19 12:11:22;;;;;;;0.45;0.40;;;;;;;;;;5020470;28;20068;-91
2022/12/19 12:14:30;;;;;;;0.70;0.70;;;;;;;;;;5050128;28;20045;-88
2022/12/19 12:17:24;;;;;;;0.30;0.30;;;;;;;;;;5041190;28;20141;-94
2022/12/19 12:20:18;;;;;;;1.38;1.33;;;;;;;;;;5057133;28;20041;-92
2022/12/19 12:23:24;;;;;;;0.77;0.77;;;;;;;;;;5051755;28;20130;-90
2022/12/19 12:26:18;;;;;;;0.70;0.70;;;;;;;;;;5051822;28;20049;-89
2022/12/19 12:29:12;;;;;;;1.63;1.00;;;;;;;;;;5047830;28;20056;-88
2022/12/19 12:32:06;;;;;;;3.33;1.30;;;;;;;;;;5050424;28;20151;-92
2022/12/19 12:35:00;;;;;;;3.22;2.35;;;;;;;;;;5045589;28;20520;-88
2022/12/19 12:37:53;;;;;;;1.58;1.48;;;;;;;;;;5051041;28;20059;-88
2022/12/19 12:40:58;;;;;;;1.80;1.67;;;;;;;;;;5015808;28;20091;-87
2022/12/19 12:43:36;;;;;;;1.65;1.48;;;;;;;;;;5042368;28;20041;-87
2022/12/19 12:46:09;;;;;;;3.13;1.73;;;;;;;;;;5046198;28;20613;-85
2022/12/19 12:48:41;;;;;;;3.40;1.98;;;;;;;;;;5049799;28;20055;-85
2022/12/19 12:51:10;;;;;;;1.35;1.15;;;;;;;;;;5049633;28;20054;-87
2022/12/19 12:53:41;;;;;;;1.65;1.52;;;;;;;;;;5051844;28;20047;-86
2022/12/19 12:56:12;;;;;;;0.90;0.85;;;;;;;;;;5051074;28;20079;-85
2022/12/19 12:58:45;;;;;;;1.33;1.15;;;;;;;;;;5040336;28;20067;-86
2022/12/19 13:01:18;;;;;;;2.65;1.42;;;;;;;;;;5052795;28;20037;-85
2022/12/19 13:03:53;;;;;;;1.30;1.13;;;;;;;;;;5052989;28;20061;-87
2022/12/19 13:06:26;;;;;;;3.20;1.83;;;;;;;;;;5047031;28;20461;-87
2022/12/19 13:09:02;;;;;;;1.27;1.17;;;;;;;;;;5050499;28;20053;-88
2022/12/19 13:14:47;;;;;;;1.48;1.38;;;;;;;;;;5036902;28;20080;-88
2022/12/19 13:17:25;;;;;;;1.50;1.40;;;;;;;;;;5051410;28;20057;-89
2022/12/19 13:19:55;;;;;;;3.10;1.35;;;;;;;;;;5046060;28;20102;-87
2022/12/19 13:22:37;;;;;;;0.73;0.73;;;;;;;;;;5035870;28;20049;-88
2022/12/19 13:25:21;;;;;;;2.47;2.20;;;;;;;;;;5045672;28;20559;-88
2022/12/19 13:27:51;;;;;;;2.22;1.75;;;;;;;;;;5045250;28;20088;-88
2022/12/19 13:30:20;;;;;;;2.38;1.05;;;;;;;;;;5048944;28;20484;-87
2022/12/19 13:33:09;;;;;;;2.65;2.45;;;;;;;;;;5044304;28;20045;-86
2022/12/19 13:35:39;;;;;;;6.75;2.15;;;;;;;;;;5042812;28;20075;-86
2022/12/19 13:38:27;;;;;;;1.88;1.30;;;;;;;;;;5049040;28;20079;-86
2022/12/19 13:44:15;;;;;;;4.03;2.58;;;;;;;;;;5047820;28;20060;-85
2022/12/19 13:46:46;;;;;;;1.05;0.95;;;;;;;;;;5042597;28;20041;-86
2022/12/19 13:49:19;;;;;;;2.92;1.90;;;;;;;;;;5051815;28;20068;-84
2022/12/19 13:51:49;;;;;;;0.93;0.77;;;;;;;;;;5045498;28;20076;-86
2022/12/19 13:54:25;;;;;;;4.32;1.83;;;;;;;;;;5051910;28;20160;-86
2022/12/19 13:56:55;;;;;;;1.60;1.40;;;;;;;;;;5043215;28;20075;-85
2022/12/19 13:59:25;;;;;;;1.52;1.42;;;;;;;;;;5040947;28;20057;-85
2022/12/19 14:01:54;;;;;;;4.55;2.55;;;;;;;;;;5045815;28;20373;-85
2022/12/19 14:04:29;;;;;;;1.73;1.63;;;;;;;;;;5039236;28;20060;-86
2022/12/19 14:06:57;;;;;;;;;;;;;;;;;;5042689;28;20111;-85
2022/12/19 14:09:28;;;;;;;0.20;0.20;;;;;;;;;;5041358;28;20004;-84
2022/12/19 14:15:12;;;;;;;1.02;0.38;;;;;;;;;;5045605;28;20057;-84
2022/12/19 14:15:29;;;;;;;0.70;0.52;;;;;;;;;;5041242;28;20046;-87
2022/12/19 14:18:01;;;;;;;2.00;1.65;;;;;;;;;;5043708;28;20065;-85
2022/12/19 14:20:54;;;;;;;1.35;1.27;;;;;;;;;;5041521;28;20045;-87
2022/12/19 14:23:42;;;;;;;2.70;1.83;;;;;;;;;;5046247;28;20051;-86
2022/12/19 14:26:14;;;;;;;1.38;1.27;;;;;;;;;;5046609;28;20122;-85
2022/12/19 14:29:04;;;;;;;2.55;1.88;;;;;;;;;;5034990;28;20040;-85
2022/12/19 14:31:33;;;;;;;4.93;2.28;;;;;;;;;;5040723;28;20405;-86
2022/12/19 14:34:01;;;;;;;2.00;1.55;;;;;;;;;;5036358;28;20502;-86
2022/12/19 14:36:53;;;;;;;4.25;2.55;;;;;;;;;;5043652;28;20048;-86
2022/12/19 14:39:23;;;;;;;1.33;1.10;;;;;;;;;;5041568;28;20136;-86
2022/12/19 14:45:23;;;;;;;0.82;0.82;;;;;;;;;;5046121;28;20061;-86
2022/12/19 14:48:29;;;;;;;3.85;0.98;;;;;;;;;;5045396;28;20202;-86
2022/12/19 14:51:21;;;;;;;0.55;0.55;;;;;;;;;;5049048;28;20045;-85
2022/12/19 14:54:21;;;;;;;7.22;2.05;;;;;;;;;;5043006;28;20052;-84
2022/12/19 14:57:16;;;;;;;1.00;1.00;;;;;;;;;;5040371;28;20117;-85
2022/12/19 15:00:19;;;;;;;1.00;0.60;;;;;;;;;;5051582;28;20041;-85
2022/12/19 15:03:08;;;;;;;1.88;1.25;;;;;;;;;;5048208;28;20049;-86
2022/12/19 15:05:43;;;;;;;2.05;1.25;;;;;;;;;;5051537;28;20132;-86
2022/12/19 15:08:11;;;;;;;1.92;1.55;;;;;;;;;;5046596;28;20083;-86
2022/12/19 15:10:43;;;;;;;1.30;1.20;;;;;;;;;;5059469;28;20059;-86
2022/12/19 15:13:31;;;;;;;1.70;0.95;;;;;;;;;;5050489;28;20095;-86
2022/12/19 15:16:27;;;;;;;1.50;1.42;;;;;;;;;;5059140;28;20117;-86
2022/12/19 15:18:57;;;;;;;1.30;1.23;;;;;;;;;;5049775;28;20135;-86
2022/12/19 15:21:26;;;;;;;1.88;1.15;;;;;;;;;;5063455;28;20072;-88
2022/12/19 15:23:54;;;;;;;2.67;1.73;;;;;;;;;;5042925;28;20072;-87
2022/12/19 15:26:29;;;;;;;0.95;0.95;;;;;;;;;;5050772;28;20041;-86
2022/12/19 15:28:58;;;;;;;1.75;1.55;;;;;;;;;;5055718;28;20059;-86
2022/12/19 15:31:30;;;;;;;5.88;2.30;;;;;;;;;;5050109;28;20060;-86
2022/12/19 15:33:59;;;;;;;3.30;2.55;;;;;;;;;;5051732;28;20038;-87
2022/12/19 15:36:48;;;;;;;2.10;1.35;;;;;;;;;;5028601;28;20049;-86
2022/12/19 15:39:17;;;;;;;3.63;2.17;;;;;;;;;;5044704;28;20473;-86
2022/12/19 15:41:49;;;;;;;1.80;1.58;;;;;;;;;;5033116;28;20548;-86
2022/12/19 15:44:20;;;;;;;4.88;2.70;;;;;;;;;;5027092;28;20133;-86
2022/12/19 15:46:49;;;;;;;1.40;1.17;;;;;;;;;;5031192;28;20670;-89
2022/12/19 15:49:18;;;;;;;3.05;1.85;;;;;;;;;;5032120;28;20068;-86